createdAt,value
2022-12-19T00:02:01.270Z,-7.80
2022-12-19T00:04:30.579Z,-7.80
2022-12-19T00:06:59.963Z,-7.80
2022-12-19T00:09:29.035Z,-7.70
2022-12-19T00:11:57.790Z,-7.80
2022-12-19T00:14:26.655Z,-7.80
2022-12-19T00:16:55.606Z,-7.70
2022-12-19T00:19:26.217Z,-7.70
2022-12-19T00:21:55.034Z,-7.70
2022-12-19T00:24:23.748Z,-7.70
2022-12-19T00:26:52.598Z,-7.80
2022-12-19T00:29:21.453Z,-7.80
2022-12-19T00:31:50.311Z,-7.90
2022-12-19T00:34:19.117Z,-7.90
2022-12-19T00:36:49.384Z,-7.90
2022-12-19T00:39:18.165Z,-7.90
2022-12-19T00:41:46.984Z,-7.90
2022-12-19T00:44:16.252Z,-7.80
2022-12-19T00:46:52.483Z,-7.80
2022-12-19T00:49:22.250Z,-7.80
2022-12-19T00:51:52.988Z,-7.80
2022-12-19T00:54:21.731Z,-7.80
2022-12-19T00:56:51.130Z,-7.80
2022-12-19T00:59:26.503Z,-7.80
2022-12-19T01:01:55.938Z,-7.80
2022-12-19T01:04:28.890Z,-7.80
2022-12-19T01:07:01.697Z,-7.80
2022-12-19T01:09:32.249Z,-7.90
2022-12-19T01:12:18.532Z,-7.90
2022-12-19T01:14:47.334Z,-7.90
2022-12-19T01:17:16.235Z,-8.00
2022-12-19T01:19:45.035Z,-8.00
2022-12-19T01:22:15.728Z,-8.00
2022-12-19T01:24:44.778Z,-8.00
2022-12-19T01:27:13.554Z,-8.00
2022-12-19T01:29:52.387Z,-8.10
2022-12-19T01:32:23.458Z,-8.10
2022-12-19T01:34:52.394Z,-8.10
2022-12-19T01:37:22.752Z,-8.20
2022-12-19T01:39:51.578Z,-8.20
2022-12-19T01:42:23.360Z,-8.20
2022-12-19T01:45:19.342Z,-8.20
2022-12-19T01:47:53.642Z,-8.20
2022-12-19T01:50:28.402Z,-8.30
2022-12-19T01:52:59.726Z,-8.30
2022-12-19T01:55:28.929Z,-8.20
2022-12-19T01:57:59.026Z,-8.20
2022-12-19T02:00:27.907Z,-8.20
2022-12-19T02:03:02.081Z,-8.20
2022-12-19T02:05:31.289Z,-8.20
2022-12-19T02:08:02.975Z,-8.20
2022-12-19T02:10:31.854Z,-8.30
2022-12-19T02:13:00.829Z,-8.30
2022-12-19T02:15:34.489Z,-8.20
2022-12-19T02:18:12.473Z,-8.30
2022-12-19T02:21:07.618Z,-8.30
2022-12-19T02:24:08.068Z,-8.30
2022-12-19T02:27:17.981Z,-8.30
2022-12-19T02:30:11.620Z,-8.20
2022-12-19T02:32:59.720Z,-8.20
2022-12-19T02:35:33.449Z,-8.20
2022-12-19T02:38:13.286Z,-8.30
2022-12-19T02:40:46.821Z,-8.30
2022-12-19T02:43:22.218Z,-8.30
2022-12-19T02:45:52.641Z,-8.30
2022-12-19T02:48:23.759Z,-8.30
2022-12-19T02:50:52.499Z,-8.20
2022-12-19T02:53:23.639Z,-8.20
2022-12-19T02:56:10.352Z,-8.20
2022-12-19T02:58:53.627Z,-8.20
2022-12-19T03:01:36.824Z,-8.00
2022-12-19T03:04:15.918Z,-8.00
2022-12-19T03:06:50.897Z,-8.10
2022-12-19T03:09:29.483Z,-8.10
2022-12-19T03:12:06.882Z,-8.20
2022-12-19T03:14:37.185Z,-8.20
2022-12-19T03:17:07.871Z,-8.10
2022-12-19T03:19:41.764Z,-8.20
2022-12-19T03:22:10.639Z,-8.10
2022-12-19T03:24:39.534Z,-8.20
2022-12-19T03:27:12.836Z,-8.10
2022-12-19T03:29:47.523Z,-8.10
2022-12-19T03:32:18.088Z,-8.10
2022-12-19T03:34:51.712Z,-8.00
2022-12-19T03:37:24.725Z,-8.00
2022-12-19T03:40:01.809Z,-7.90
2022-12-19T03:42:51.233Z,-7.90
2022-12-19T03:45:27.438Z,-7.90
2022-12-19T03:48:00.856Z,-7.80
2022-12-19T03:50:36.927Z,-7.80
2022-12-19T03:53:13.341Z,-7.80
2022-12-19T03:55:48.453Z,-7.80
2022-12-19T03:58:25.501Z,-7.70
2022-12-19T04:00:55.675Z,-7.70
2022-12-19T04:03:25.786Z,-7.70
2022-12-19T04:05:57.269Z,-7.70
2022-12-19T04:08:26.571Z,-7.60
2022-12-19T04:10:58.909Z,-7.60
2022-12-19T04:13:34.713Z,-7.60
2022-12-19T04:16:12.625Z,-7.60
2022-12-19T04:18:48.637Z,-7.50
2022-12-19T04:21:23.770Z,-7.50
2022-12-19T04:23:59.462Z,-7.50
2022-12-19T04:26:29.933Z,-7.40
2022-12-19T04:29:02.227Z,-7.40
2022-12-19T04:31:31.140Z,-7.40
2022-12-19T04:34:00.004Z,-7.40
2022-12-19T04:36:30.223Z,-7.40
2022-12-19T04:38:59.379Z,-7.40
2022-12-19T04:41:28.187Z,-7.40
2022-12-19T04:43:56.960Z,-7.40
2022-12-19T04:46:25.785Z,-7.50
2022-12-19T04:48:54.687Z,-7.50
2022-12-19T04:51:23.886Z,-7.50
2022-12-19T04:53:54.163Z,-7.50
2022-12-19T04:56:22.908Z,-7.50
2022-12-19T04:58:51.704Z,-7.50
2022-12-19T05:01:20.571Z,-7.50
2022-12-19T05:03:54.324Z,-7.50
2022-12-19T05:06:25.630Z,-7.50
2022-12-19T05:08:55.884Z,-7.50
2022-12-19T05:11:24.632Z,-7.50
2022-12-19T05:13:54.565Z,-7.50
2022-12-19T05:16:23.263Z,-7.50
2022-12-19T05:18:52.039Z,-7.50
2022-12-19T05:21:21.514Z,-7.50
2022-12-19T05:23:51.503Z,-7.40
2022-12-19T05:26:22.006Z,-7.40
2022-12-19T05:28:50.749Z,-7.40
2022-12-19T05:31:21.691Z,-7.50
2022-12-19T05:33:50.998Z,-7.50
2022-12-19T05:36:20.403Z,-7.50
2022-12-19T05:38:49.345Z,-7.50
2022-12-19T05:41:21.596Z,-7.40
2022-12-19T05:43:53.266Z,-7.40
2022-12-19T05:46:22.783Z,-7.40
2022-12-19T05:48:51.696Z,-7.30
2022-12-19T05:51:21.372Z,-7.30
2022-12-19T05:53:50.170Z,-7.40
2022-12-19T05:56:21.843Z,-7.50
2022-12-19T05:58:51.073Z,-7.50
2022-12-19T06:01:22.059Z,-7.40
2022-12-19T06:03:51.586Z,-7.40
2022-12-19T06:06:22.217Z,-7.30
2022-12-19T06:08:55.112Z,-7.30
2022-12-19T06:11:25.801Z,-7.30
2022-12-19T06:13:54.885Z,-7.30
2022-12-19T06:16:24.546Z,-7.40
2022-12-19T06:18:53.638Z,-7.30
2022-12-19T06:21:24.225Z,-7.20
2022-12-19T06:23:53.116Z,-7.20
2022-12-19T06:26:24.369Z,-7.20
2022-12-19T06:28:54.472Z,-7.20
2022-12-19T06:31:25.087Z,-7.20
2022-12-19T06:33:54.106Z,-7.10
2022-12-19T06:36:24.735Z,-7.00
2022-12-19T06:38:54.758Z,-7.00
2022-12-19T06:41:44.677Z,-6.90
2022-12-19T06:44:16.617Z,-6.80
2022-12-19T06:46:46.284Z,-6.70
2022-12-19T06:49:15.626Z,-6.60
2022-12-19T06:51:44.680Z,-6.60
2022-12-19T06:54:13.973Z,-6.50
2022-12-19T06:56:44.912Z,-6.50
2022-12-19T06:59:15.471Z,-6.50
2022-12-19T07:01:57.290Z,-6.50
2022-12-19T07:04:33.529Z,-6.40
2022-12-19T07:07:02.771Z,-6.40
2022-12-19T07:09:33.267Z,-6.40
2022-12-19T07:12:06.899Z,-6.30
2022-12-19T07:14:36.072Z,-6.30
2022-12-19T07:17:06.632Z,-6.30
2022-12-19T07:19:36.804Z,-6.20
2022-12-19T07:22:06.987Z,-6.20
2022-12-19T07:24:37.597Z,-6.20
2022-12-19T07:27:10.226Z,-6.00
2022-12-19T07:29:38.988Z,-5.90
2022-12-19T07:32:08.451Z,-5.70
2022-12-19T07:34:37.159Z,-5.70
2022-12-19T07:37:07.039Z,-5.60
2022-12-19T07:39:36.371Z,-5.50
2022-12-19T07:42:06.867Z,-5.30
2022-12-19T07:44:35.762Z,-5.10
2022-12-19T07:47:04.826Z,-4.90
2022-12-19T07:49:34.132Z,-4.80
2022-12-19T07:52:03.259Z,-4.70
2022-12-19T07:54:32.427Z,-4.50
2022-12-19T07:57:03.336Z,-4.30
2022-12-19T07:59:38.910Z,-4.00
2022-12-19T08:02:14.569Z,-3.60
2022-12-19T08:04:44.066Z,-3.30
2022-12-19T08:07:13.267Z,-3.20
2022-12-19T08:09:42.329Z,-3.40
2022-12-19T08:12:11.261Z,-3.20
2022-12-19T08:14:41.493Z,-3.10
2022-12-19T08:17:20.131Z,-2.80
2022-12-19T08:19:49.638Z,-2.50
2022-12-19T08:22:18.306Z,-2.30
2022-12-19T08:24:47.369Z,-2.10
2022-12-19T08:27:18.995Z,-1.90
2022-12-19T08:29:49.655Z,-1.60
2022-12-19T08:32:21.286Z,-1.10
2022-12-19T08:34:50.592Z,-0.70
2022-12-19T08:37:19.863Z,-0.90
2022-12-19T08:39:48.773Z,-0.80
2022-12-19T08:42:17.928Z,-0.60
2022-12-19T08:44:46.683Z,-0.40
2022-12-19T08:47:18.587Z,-0.30
2022-12-19T08:49:47.418Z,-0.30
2022-12-19T08:52:17.947Z,-0.40
2022-12-19T08:54:46.996Z,-0.60
2022-12-19T08:57:15.928Z,-0.60
2022-12-19T08:59:44.937Z,-0.60
2022-12-19T09:02:16.374Z,-0.40
2022-12-19T09:06:01.888Z,0.10
2022-12-19T09:07:38.606Z,0.80
2022-12-19T09:10:08.901Z,1.80
2022-12-19T09:12:37.653Z,2.70
2022-12-19T09:15:07.225Z,3.20
2022-12-19T09:17:35.929Z,3.50
2022-12-19T09:20:06.844Z,4.10
2022-12-19T09:22:35.615Z,4.50
2022-12-19T09:25:04.479Z,4.80
2022-12-19T09:28:01.249Z,5.20
2022-12-19T09:30:23.652Z,5.50
2022-12-19T09:32:52.529Z,5.70
2022-12-19T09:35:27.047Z,6.10
2022-12-19T09:38:00.591Z,6.40
2022-12-19T09:40:34.906Z,6.60
2022-12-19T09:43:12.847Z,6.90
2022-12-19T09:45:58.203Z,7.20
2022-12-19T09:48:27.197Z,7.40
2022-12-19T09:51:09.601Z,7.70
2022-12-19T09:53:53.822Z,8.00
2022-12-19T09:56:27.227Z,8.70
2022-12-19T09:59:02.117Z,9.40
2022-12-19T10:01:34.397Z,9.80
2022-12-19T10:04:10.479Z,9.70
2022-12-19T10:07:07.616Z,9.80
2022-12-19T10:12:25.380Z,10.20
2022-12-19T10:12:51.206Z,10.30
2022-12-19T10:15:30.920Z,10.10
2022-12-19T10:18:15.708Z,10.30
2022-12-19T10:20:52.369Z,9.50
2022-12-19T10:23:50.432Z,9.70
2022-12-19T10:26:22.202Z,9.20
2022-12-19T10:29:12.492Z,8.50
2022-12-19T10:31:46.762Z,8.40
2022-12-19T10:34:24.594Z,8.30
2022-12-19T10:39:57.060Z,8.60
2022-12-19T10:42:36.118Z,8.40
2022-12-19T10:45:11.812Z,8.20
2022-12-19T10:47:42.577Z,7.90
2022-12-19T10:50:15.401Z,8.00
2022-12-19T10:52:53.696Z,7.60
2022-12-19T10:55:36.024Z,6.70
2022-12-19T10:58:19.210Z,6.00
2022-12-19T11:01:13.386Z,6.00
2022-12-19T11:03:46.549Z,6.60
2022-12-19T11:06:46.780Z,7.10
2022-12-19T11:09:25.279Z,7.40
2022-12-19T11:15:49.483Z,7.90
2022-12-19T11:18:57.994Z,7.90
2022-12-19T11:24:31.734Z,7.60
2022-12-19T11:29:32.311Z,7.00
2022-12-19T11:29:35.301Z,6.80
2022-12-19T11:29:54.648Z,6.80
2022-12-19T11:32:00.187Z,7.00
2022-12-19T11:32:46.402Z,7.30
2022-12-19T11:35:24.454Z,7.00
2022-12-19T11:37:57.824Z,6.50
2022-12-19T11:40:35.272Z,6.50
2022-12-19T11:46:04.789Z,7.20
2022-12-19T11:48:41.669Z,7.30
2022-12-19T11:51:19.988Z,7.10
2022-12-19T11:53:57.415Z,7.30
2022-12-19T11:56:28.185Z,7.20
2022-12-19T11:59:00.209Z,7.30
2022-12-19T12:01:44.746Z,6.50
2022-12-19T12:04:44.541Z,6.60
2022-12-19T12:07:33.369Z,6.20
2022-12-19T12:13:59.475Z,6.10
2022-12-19T12:23:12.357Z,6.30
2022-12-19T12:25:23.649Z,6.50
2022-12-19T12:31:15.312Z,6.40
2022-12-19T12:31:25.831Z,5.90
2022-12-19T12:31:40.922Z,5.90
2022-12-19T12:31:48.722Z,5.70
2022-12-19T12:35:40.778Z,5.30
2022-12-19T12:41:04.687Z,5.40
2022-12-19T12:43:47.655Z,4.90
2022-12-19T12:46:21.102Z,4.90
2022-12-19T12:48:55.275Z,4.70
2022-12-19T12:51:27.873Z,4.60
2022-12-19T12:54:01.899Z,4.80
2022-12-19T12:56:31.190Z,5.20
2022-12-19T12:59:22.994Z,5.60
2022-12-19T13:01:57.147Z,5.60
2022-12-19T13:04:37.208Z,5.40
2022-12-19T13:07:22.909Z,5.20
2022-12-19T13:10:43.577Z,4.60
2022-12-19T13:13:22.546Z,4.70
2022-12-19T13:15:54.642Z,4.80
2022-12-19T13:18:41.235Z,4.70
2022-12-19T13:21:11.822Z,4.00
2022-12-19T13:23:49.550Z,3.60
2022-12-19T13:26:46.867Z,3.50
2022-12-19T13:29:54.236Z,3.30
2022-12-19T13:32:24.648Z,3.10
2022-12-19T13:35:26.781Z,3.00
2022-12-19T13:40:01.896Z,2.90
2022-12-19T13:40:55.471Z,2.90
2022-12-19T13:43:46.336Z,2.90
2022-12-19T13:46:32.904Z,2.80
2022-12-19T13:49:07.504Z,2.60
2022-12-19T13:51:51.560Z,2.40
2022-12-19T13:54:26.247Z,2.20
2022-12-19T13:56:57.428Z,2.20
2022-12-19T13:59:29.747Z,2.20
2022-12-19T14:02:09.457Z,2.10
2022-12-19T14:04:41.959Z,2.10
2022-12-19T14:07:40.713Z,2.00
2022-12-19T14:11:33.672Z,1.90
2022-12-19T14:13:43.685Z,1.80
2022-12-19T14:16:20.179Z,1.80
2022-12-19T14:18:51.406Z,1.80
2022-12-19T14:22:10.607Z,1.70
2022-12-19T14:24:17.312Z,1.50
2022-12-19T14:28:23.444Z,1.60
2022-12-19T14:30:26.028Z,1.60
2022-12-19T14:33:43.502Z,1.50
2022-12-19T14:36:08.325Z,1.40
2022-12-19T14:39:25.612Z,1.40
2022-12-19T14:42:01.976Z,1.30
2022-12-19T14:54:01.245Z,1.30
2022-12-19T14:54:03.916Z,1.20
2022-12-19T14:54:07.297Z,1.40
2022-12-19T14:54:40.344Z,1.30
2022-12-19T14:59:05.788Z,1.30
2022-12-19T15:01:37.864Z,1.30
2022-12-19T15:04:50.229Z,1.40
2022-12-19T15:07:12.239Z,1.30
2022-12-19T15:11:04.534Z,1.20
2022-12-19T15:14:57.079Z,1.20
2022-12-19T15:16:05.484Z,1.20
2022-12-19T15:18:44.041Z,1.00
2022-12-19T15:21:15.941Z,1.00
2022-12-19T15:23:46.989Z,1.00
2022-12-19T15:26:20.373Z,0.90
2022-12-19T15:28:53.437Z,0.90
2022-12-19T15:31:35.144Z,0.90
2022-12-19T15:34:38.058Z,0.90
2022-12-19T15:37:16.949Z,0.90
2022-12-19T15:39:46.714Z,0.90
2022-12-19T15:42:23.045Z,0.90
2022-12-19T15:44:56.773Z,0.80
2022-12-19T15:47:31.447Z,0.90
2022-12-19T15:50:06.882Z,0.90
2022-12-19T15:52:36.937Z,0.90
2022-12-19T15:55:08.348Z,0.90
2022-12-19T15:57:41.390Z,0.90
2022-12-19T16:00:24.873Z,0.90
2022-12-19T16:05:49.254Z,0.90
2022-12-19T16:08:23.151Z,0.90
2022-12-19T16:11:01.343Z,1.00
2022-12-19T16:13:36.159Z,0.90
2022-12-19T16:16:14.931Z,0.90
2022-12-19T16:18:47.827Z,0.80
2022-12-19T16:21:34.245Z,0.90
2022-12-19T16:24:03.712Z,0.90
2022-12-19T16:26:35.877Z,0.90
2022-12-19T16:29:06.921Z,0.90
2022-12-19T16:31:36.146Z,0.90
2022-12-19T16:34:14.330Z,0.90
2022-12-19T16:36:45.062Z,0.90
2022-12-19T16:39:15.115Z,1.00
2022-12-19T16:41:44.659Z,1.00
2022-12-19T16:44:19.719Z,1.00
2022-12-19T16:46:51.402Z,1.00
2022-12-19T16:49:23.733Z,1.10
2022-12-19T16:51:54.675Z,1.20
2022-12-19T16:54:23.632Z,1.10
2022-12-19T16:56:54.822Z,1.20
2022-12-19T16:59:27.544Z,1.10
2022-12-19T17:01:57.521Z,1.10
2022-12-19T17:04:28.573Z,1.00
2022-12-19T17:06:58.879Z,1.10
2022-12-19T17:09:28.023Z,1.10
2022-12-19T17:11:59.425Z,1.20
2022-12-19T17:14:32.208Z,1.20
2022-12-19T17:17:01.782Z,1.20
2022-12-19T17:19:35.243Z,1.30
2022-12-19T17:22:11.952Z,1.30
2022-12-19T17:24:41.177Z,1.30
2022-12-19T17:27:10.157Z,1.30
2022-12-19T17:29:39.532Z,1.40
2022-12-19T17:32:10.414Z,1.50
2022-12-19T17:34:39.492Z,1.40
2022-12-19T17:37:17.931Z,1.50
2022-12-19T17:39:48.643Z,1.50
2022-12-19T17:42:21.834Z,1.50
2022-12-19T17:44:50.849Z,1.50
2022-12-19T17:47:21.676Z,1.50
2022-12-19T17:49:51.159Z,1.50
2022-12-19T17:52:22.162Z,1.50
2022-12-19T17:54:51.041Z,1.50
2022-12-19T17:57:20.333Z,1.50
2022-12-19T17:59:49.490Z,1.50
2022-12-19T18:02:25.286Z,1.50
2022-12-19T18:04:54.962Z,1.50
2022-12-19T18:07:25.405Z,1.50
2022-12-19T18:09:54.534Z,1.60
2022-12-19T18:12:23.715Z,1.70
2022-12-19T18:14:52.856Z,1.70
2022-12-19T18:17:25.711Z,1.70
2022-12-19T18:19:54.678Z,1.70
2022-12-19T18:22:25.147Z,1.60
2022-12-19T18:24:54.158Z,1.60
2022-12-19T18:27:23.620Z,1.70
2022-12-19T18:29:52.880Z,1.50
2022-12-19T18:32:22.725Z,1.60
2022-12-19T18:34:52.172Z,1.40
2022-12-19T18:37:21.307Z,1.40
2022-12-19T18:39:56.110Z,1.40
2022-12-19T18:42:25.649Z,1.40
2022-12-19T18:44:54.550Z,1.30
2022-12-19T18:47:25.801Z,1.30
2022-12-19T18:49:54.773Z,1.30
2022-12-19T18:52:24.486Z,1.30
2022-12-19T18:54:55.766Z,1.40
2022-12-19T18:57:24.818Z,1.50
2022-12-19T18:59:54.720Z,1.50
2022-12-19T19:02:28.228Z,1.40
2022-12-19T19:04:57.961Z,1.50
2022-12-19T19:07:27.654Z,1.50
2022-12-19T19:10:01.259Z,1.50
2022-12-19T19:12:30.952Z,1.60
2022-12-19T19:15:01.022Z,1.50
2022-12-19T19:17:32.761Z,1.50
2022-12-19T19:20:03.216Z,1.60
2022-12-19T19:22:32.430Z,1.60
2022-12-19T19:25:04.993Z,1.60
2022-12-19T19:27:34.899Z,1.70
2022-12-19T19:30:04.291Z,1.70
2022-12-19T19:32:34.229Z,1.80
2022-12-19T19:35:04.232Z,1.80
2022-12-19T19:37:33.606Z,1.70
2022-12-19T19:40:04.780Z,1.80
2022-12-19T19:42:35.260Z,1.80
2022-12-19T19:45:04.488Z,1.90
2022-12-19T19:47:37.008Z,1.90
2022-12-19T19:50:08.669Z,2.00
2022-12-19T19:52:41.090Z,1.90
2022-12-19T19:55:15.138Z,1.80
2022-12-19T19:57:45.788Z,1.90
2022-12-19T20:00:16.598Z,1.90
2022-12-19T20:02:46.898Z,2.00
2022-12-19T20:05:16.551Z,2.00
2022-12-19T20:07:46.260Z,2.10
2022-12-19T20:10:17.313Z,2.20
2022-12-19T20:12:48.380Z,2.20
2022-12-19T20:15:18.702Z,2.20
2022-12-19T20:17:48.572Z,2.30
2022-12-19T20:20:19.503Z,2.40
2022-12-19T20:22:49.268Z,2.30
2022-12-19T20:25:20.137Z,2.30
2022-12-19T20:27:49.529Z,2.30
2022-12-19T20:30:19.127Z,2.20
2022-12-19T20:32:48.249Z,2.20
2022-12-19T20:35:18.279Z,2.10
2022-12-19T20:37:47.430Z,2.10
2022-12-19T20:40:16.849Z,2.00
2022-12-19T20:42:47.660Z,2.10
2022-12-19T20:45:17.395Z,2.20
2022-12-19T20:47:58.911Z,2.30
2022-12-19T20:50:41.304Z,2.30
2022-12-19T20:53:15.390Z,2.30
2022-12-19T20:55:57.612Z,2.40
2022-12-19T20:58:39.549Z,2.30
2022-12-19T21:01:17.613Z,2.30
2022-12-19T21:04:01.417Z,2.20
2022-12-19T21:06:30.715Z,2.20
2022-12-19T21:09:27.680Z,2.10
2022-12-19T21:11:57.489Z,2.00
2022-12-19T21:14:28.667Z,2.00
2022-12-19T21:16:57.955Z,2.00
2022-12-19T21:19:30.079Z,2.00
2022-12-19T21:22:05.284Z,2.00
2022-12-19T21:24:34.412Z,2.00
2022-12-19T21:27:05.224Z,1.90
2022-12-19T21:29:35.591Z,1.90
2022-12-19T21:32:10.965Z,1.90
2022-12-19T21:34:48.961Z,2.00
2022-12-19T21:37:21.441Z,1.90
2022-12-19T21:39:51.760Z,1.90
2022-12-19T21:42:46.272Z,1.90
2022-12-19T21:45:34.053Z,2.00
2022-12-19T21:48:13.213Z,1.90
2022-12-19T21:50:56.338Z,1.90
2022-12-19T21:53:29.959Z,2.00
2022-12-19T21:56:11.035Z,2.10
2022-12-19T21:58:39.940Z,2.10
2022-12-19T22:01:28.600Z,2.00
2022-12-19T22:04:11.984Z,2.10
2022-12-19T22:06:42.192Z,2.20
2022-12-19T22:09:18.086Z,2.30
2022-12-19T22:11:49.712Z,2.30
2022-12-19T22:14:21.303Z,2.30
2022-12-19T22:16:54.185Z,2.30
2022-12-19T22:19:23.688Z,2.20
2022-12-19T22:21:53.230Z,2.10
2022-12-19T22:24:23.445Z,2.10
2022-12-19T22:26:53.999Z,2.20
2022-12-19T22:29:23.331Z,2.10
2022-12-19T22:31:56.998Z,2.00
2022-12-19T22:34:26.821Z,1.90
2022-12-19T22:36:56.009Z,1.90
2022-12-19T22:39:25.115Z,1.80
2022-12-19T22:41:53.963Z,1.80
2022-12-19T22:44:25.080Z,1.80
2022-12-19T22:46:55.346Z,1.80
2022-12-19T22:49:24.191Z,1.80
2022-12-19T22:51:53.075Z,1.90
2022-12-19T22:54:21.932Z,1.90
2022-12-19T22:56:52.557Z,2.00
2022-12-19T22:59:21.353Z,2.10
2022-12-19T23:01:50.271Z,2.00
2022-12-19T23:04:21.216Z,2.00
2022-12-19T23:06:50.178Z,2.00
2022-12-19T23:09:20.234Z,2.10
2022-12-19T23:11:50.790Z,2.20
2022-12-19T23:14:21.370Z,2.10
2022-12-19T23:16:50.420Z,2.20
2022-12-19T23:19:20.910Z,2.20
2022-12-19T23:21:49.758Z,2.10
2022-12-19T23:24:18.720Z,2.20
2022-12-19T23:26:47.526Z,2.10
2022-12-19T23:29:17.586Z,2.00
2022-12-19T23:31:48.285Z,1.90
2022-12-19T23:34:17.506Z,1.90
2022-12-19T23:39:36.877Z,1.90
2022-12-19T23:42:05.964Z,2.00
2022-12-19T23:44:35.040Z,2.10
2022-12-19T23:47:04.270Z,2.10
2022-12-19T23:49:34.150Z,2.00
2022-12-19T23:52:04.553Z,2.00
2022-12-19T23:54:33.430Z,2.10
2022-12-19T23:57:02.253Z,2.00
2022-12-19T23:59:31.354Z,2.00
